createdAt,value
2019-05-05T00:01:29.526Z,16.93
2019-05-05T00:04:29.751Z,16.67
2019-05-05T00:07:09.693Z,14.80
2019-05-05T00:09:58.321Z,12.50
2019-05-05T00:13:05.605Z,16.50
2019-05-05T00:16:15.065Z,17.97
2019-05-05T00:19:04.764Z,13.83
2019-05-05T00:21:55.133Z,13.27
2019-05-05T00:24:44.410Z,14.33
2019-05-05T00:27:34.684Z,17.13
2019-05-05T00:30:24.928Z,14.53
2019-05-05T00:33:14.484Z,12.30
2019-05-05T00:36:07.486Z,15.57
2019-05-05T00:38:55.254Z,16.07
2019-05-05T00:41:36.617Z,14.80
2019-05-05T00:44:18.106Z,18.97
2019-05-05T00:53:05.788Z,15.70
2019-05-05T00:55:54.703Z,14.37
2019-05-05T01:02:16.168Z,18.80
2019-05-05T01:05:25.295Z,12.87
2019-05-05T01:14:08.521Z,17.80
2019-05-05T01:16:56.904Z,14.40
2019-05-05T01:19:49.584Z,18.47
2019-05-05T01:22:35.497Z,16.63
2019-05-05T01:25:25.378Z,14.63
2019-05-05T01:28:14.373Z,19.03
2019-05-05T01:34:20.775Z,17.03
2019-05-05T01:37:28.109Z,14.57
2019-05-05T01:40:36.898Z,20.20
2019-05-05T01:43:18.212Z,16.03
2019-05-05T01:45:59.073Z,18.20
2019-05-05T01:48:38.573Z,15.47
2019-05-05T01:51:27.001Z,16.10
2019-05-05T01:54:15.374Z,15.53
2019-05-05T01:59:57.643Z,18.37
2019-05-05T02:02:46.067Z,17.07
2019-05-05T02:05:34.968Z,16.10
2019-05-05T02:08:24.601Z,15.67
2019-05-05T02:14:00.633Z,17.07
2019-05-05T02:16:41.638Z,17.53
2019-05-05T02:19:25.021Z,15.17
2019-05-05T02:22:05.422Z,17.73
2019-05-05T02:24:55.124Z,16.17
2019-05-05T02:27:44.709Z,20.43
2019-05-05T02:33:51.716Z,15.93
2019-05-05T02:36:40.116Z,21.97
2019-05-05T02:39:28.534Z,16.17
2019-05-05T02:42:17.393Z,17.73
2019-05-05T02:48:15.728Z,18.17
2019-05-05T02:51:07.206Z,18.00
2019-05-05T02:54:16.768Z,16.17
2019-05-05T02:57:05.319Z,17.90
2019-05-05T03:02:46.446Z,20.03
2019-05-05T03:05:27.787Z,17.97
2019-05-05T03:08:08.391Z,15.03
2019-05-05T03:10:50.373Z,18.90
2019-05-05T03:13:59.195Z,18.23
2019-05-05T03:16:47.579Z,18.87
2019-05-05T03:19:36.000Z,18.13
2019-05-05T03:22:44.805Z,20.00
2019-05-05T03:25:33.464Z,16.33
2019-05-05T03:31:35.208Z,20.73
2019-05-05T03:34:24.014Z,17.20
2019-05-05T03:37:14.652Z,17.70
2019-05-05T03:43:11.424Z,19.37
2019-05-05T03:46:13.580Z,18.00
2019-05-05T03:48:41.313Z,13.10
2019-05-05T03:51:24.305Z,15.50
2019-05-05T03:54:04.988Z,15.37
2019-05-05T03:56:45.860Z,16.93
2019-05-05T03:59:27.142Z,15.97
2019-05-05T04:02:26.620Z,13.43
2019-05-05T04:05:33.997Z,13.77
2019-05-05T04:08:16.913Z,16.30
2019-05-05T04:10:58.348Z,16.70
2019-05-05T04:13:39.732Z,13.97
2019-05-05T04:16:26.952Z,12.80
2019-05-05T04:19:08.685Z,12.83
2019-05-05T04:21:48.246Z,15.90
2019-05-05T04:24:36.636Z,12.47
2019-05-05T04:27:25.000Z,11.87
2019-05-05T04:30:14.274Z,14.10
2019-05-05T04:33:04.348Z,13.47
2019-05-05T04:35:54.532Z,12.13
2019-05-05T04:38:43.908Z,11.03
2019-05-05T04:41:33.763Z,11.10
2019-05-05T04:44:17.948Z,10.83
2019-05-05T04:47:03.794Z,15.90
2019-05-05T04:52:39.896Z,13.73
2019-05-05T04:55:21.325Z,9.77
2019-05-05T04:58:02.102Z,11.63
2019-05-05T05:00:44.100Z,8.87
2019-05-05T05:03:34.489Z,10.67
2019-05-05T05:06:43.494Z,9.70
2019-05-05T05:09:31.759Z,10.40
2019-05-05T05:12:20.141Z,8.83
2019-05-05T05:15:08.674Z,8.67
2019-05-05T05:21:11.709Z,9.40
2019-05-05T05:24:00.076Z,8.57
2019-05-05T05:26:48.539Z,8.53
2019-05-05T05:29:37.399Z,7.53
2019-05-05T05:32:25.808Z,8.83
2019-05-05T05:35:14.339Z,8.47
2019-05-05T05:38:04.657Z,8.97
2019-05-05T05:41:13.659Z,6.53
2019-05-05T05:44:14.065Z,6.60
2019-05-05T05:50:14.314Z,7.53
2019-05-05T05:52:56.169Z,6.57
2019-05-05T05:55:37.450Z,6.17
2019-05-05T05:58:18.747Z,7.43
2019-05-05T06:00:59.372Z,12.57
2019-05-05T06:03:40.844Z,5.40
2019-05-05T06:06:24.005Z,6.53
2019-05-05T06:09:04.747Z,5.60
2019-05-05T06:11:44.258Z,4.97
2019-05-05T06:14:34.035Z,4.13
2019-05-05T06:17:23.798Z,5.20
2019-05-05T06:20:14.561Z,5.93
2019-05-05T06:23:04.198Z,4.90
2019-05-05T06:25:55.149Z,3.63
2019-05-05T06:28:44.720Z,4.27
2019-05-05T06:31:34.138Z,7.70
2019-05-05T06:34:24.459Z,4.97
2019-05-05T06:37:14.573Z,4.50
2019-05-05T06:42:59.125Z,4.97
2019-05-05T06:45:45.453Z,5.90
2019-05-05T06:48:26.795Z,6.10
2019-05-05T06:51:08.083Z,8.13
2019-05-05T06:53:49.443Z,7.33
2019-05-05T06:56:30.092Z,5.33
2019-05-05T06:59:10.765Z,5.40
2019-05-05T07:01:53.470Z,9.30
2019-05-05T07:04:34.082Z,6.37
2019-05-05T07:07:15.125Z,11.73
2019-05-05T07:09:56.572Z,5.77
2019-05-05T07:12:38.537Z,9.43
2019-05-05T07:15:19.199Z,6.20
2019-05-05T07:17:59.938Z,8.70
2019-05-05T07:20:41.415Z,9.73
2019-05-05T07:23:24.648Z,8.37
2019-05-05T07:26:05.514Z,6.83
2019-05-05T07:28:46.547Z,11.20
2019-05-05T07:31:27.664Z,10.77
2019-05-05T07:34:08.705Z,10.63
2019-05-05T07:36:51.131Z,9.20
2019-05-05T07:39:34.100Z,11.03
2019-05-05T07:42:15.052Z,13.60
2019-05-05T07:44:55.656Z,9.40
2019-05-05T07:47:36.242Z,10.80
2019-05-05T07:50:28.910Z,10.90
2019-05-05T07:53:11.478Z,12.57
2019-05-05T07:55:43.711Z,11.17
2019-05-05T07:58:25.242Z,11.20
2019-05-05T08:01:05.926Z,10.37
2019-05-05T08:03:47.487Z,9.80
2019-05-05T08:06:28.189Z,10.43
2019-05-05T08:09:08.856Z,9.53
2019-05-05T08:11:49.576Z,9.43
2019-05-05T08:14:30.988Z,10.87
2019-05-05T08:17:31.296Z,7.17
2019-05-05T08:20:23.780Z,10.00
2019-05-05T08:23:08.136Z,8.93
2019-05-05T08:26:06.590Z,6.33
2019-05-05T08:32:04.243Z,7.10
2019-05-05T08:34:57.471Z,5.47
2019-05-05T08:37:27.915Z,7.67
2019-05-05T08:40:09.460Z,5.77
2019-05-05T08:42:50.169Z,9.30
2019-05-05T08:45:30.855Z,5.53
2019-05-05T08:48:01.710Z,9.33
2019-05-05T08:50:31.097Z,9.90
2019-05-05T08:53:04.272Z,6.23
2019-05-05T08:55:33.962Z,6.87
2019-05-05T08:58:04.619Z,9.37
2019-05-05T09:00:35.296Z,8.53
2019-05-05T09:03:04.675Z,8.17
2019-05-05T09:05:34.443Z,10.43
2019-05-05T09:08:04.726Z,7.73
2019-05-05T09:10:34.806Z,10.83
2019-05-05T09:13:04.424Z,8.60
2019-05-05T09:15:37.568Z,12.20
2019-05-05T09:18:06.957Z,11.37
2019-05-05T09:20:36.349Z,11.30
2019-05-05T09:23:05.743Z,9.83
2019-05-05T09:25:48.024Z,10.13
2019-05-05T09:28:27.868Z,6.67
2019-05-05T09:30:57.320Z,6.07
2019-05-05T09:33:26.703Z,9.57
2019-05-05T09:35:59.983Z,5.57
2019-05-05T09:38:30.340Z,6.17
2019-05-05T09:40:59.829Z,6.10
2019-05-05T09:43:29.201Z,8.97
2019-05-05T09:45:58.785Z,5.87
2019-05-05T09:48:28.143Z,7.73
2019-05-05T09:50:57.554Z,4.60
2019-05-05T09:53:27.395Z,4.97
2019-05-05T09:55:57.074Z,6.40
2019-05-05T09:58:26.489Z,5.13
2019-05-05T10:00:56.015Z,5.43
2019-05-05T10:03:25.513Z,4.47
2019-05-05T10:05:54.970Z,6.20
2019-05-05T10:08:24.425Z,5.87
2019-05-05T10:10:54.705Z,5.07
2019-05-05T10:13:27.335Z,6.00
2019-05-05T10:15:57.062Z,6.97
2019-05-05T10:18:26.453Z,6.10
2019-05-05T10:20:56.801Z,3.80
2019-05-05T10:23:27.914Z,6.90
2019-05-05T10:26:01.656Z,7.13
2019-05-05T10:28:31.161Z,6.27
2019-05-05T10:31:00.765Z,5.23
2019-05-05T10:33:30.155Z,6.97
2019-05-05T10:35:59.726Z,7.90
2019-05-05T10:38:29.245Z,7.87
2019-05-05T10:40:58.953Z,7.90
2019-05-05T10:43:28.503Z,6.23
2019-05-05T10:45:59.427Z,8.83
2019-05-05T10:48:33.901Z,6.47
2019-05-05T10:51:04.245Z,5.70
2019-05-05T10:53:34.409Z,5.20
2019-05-05T10:56:04.411Z,5.17
2019-05-05T10:58:34.324Z,5.83
2019-05-05T11:01:04.318Z,4.87
2019-05-05T11:03:37.704Z,5.57
2019-05-05T11:06:07.835Z,3.20
2019-05-05T11:08:37.308Z,7.43
2019-05-05T11:11:06.953Z,6.63
2019-05-05T11:13:36.918Z,5.73
2019-05-05T11:16:06.366Z,3.30
2019-05-05T11:18:35.742Z,9.43
2019-05-05T11:21:05.940Z,7.23
2019-05-05T11:23:35.489Z,6.53
2019-05-05T11:26:06.844Z,9.43
2019-05-05T11:28:36.268Z,3.93
2019-05-05T11:31:05.807Z,5.70
2019-05-05T11:34:03.603Z,3.97
2019-05-05T11:36:56.984Z,4.60
2019-05-05T11:39:28.546Z,6.13
2019-05-05T11:41:59.611Z,12.53
2019-05-05T11:44:29.164Z,13.13
2019-05-05T11:46:58.755Z,6.27
2019-05-05T11:49:29.893Z,5.83
2019-05-05T11:51:59.296Z,9.37
2019-05-05T11:54:29.748Z,5.53
2019-05-05T11:56:59.074Z,4.20
2019-05-05T11:59:30.124Z,5.40
2019-05-05T12:01:59.520Z,3.60
2019-05-05T12:04:30.728Z,5.73
2019-05-05T12:07:00.127Z,7.60
2019-05-05T12:09:44.267Z,7.03
2019-05-05T12:12:14.247Z,4.43
2019-05-05T12:14:44.004Z,9.97
2019-05-05T12:17:15.005Z,7.63
2019-05-05T12:19:44.554Z,6.53
2019-05-05T12:22:15.008Z,7.33
2019-05-05T12:24:46.753Z,7.87
2019-05-05T12:27:24.666Z,8.60
2019-05-05T12:30:14.485Z,9.00
2019-05-05T12:32:43.925Z,9.33
2019-05-05T12:35:14.839Z,7.17
2019-05-05T12:37:49.395Z,8.13
2019-05-05T12:40:19.027Z,9.17
2019-05-05T12:42:48.566Z,7.63
2019-05-05T12:45:23.974Z,5.10
2019-05-05T12:47:55.169Z,9.50
2019-05-05T12:50:25.761Z,8.30
2019-05-05T12:52:55.168Z,11.13
2019-05-05T12:55:37.850Z,10.30
2019-05-05T12:57:55.712Z,5.43
2019-05-05T13:00:25.851Z,7.70
2019-05-05T13:02:55.265Z,10.30
2019-05-05T13:05:24.725Z,6.30
2019-05-05T13:07:54.168Z,8.93
2019-05-05T13:10:24.436Z,5.97
2019-05-05T13:12:54.382Z,5.40
2019-05-05T13:15:24.756Z,9.13
2019-05-05T13:17:54.547Z,5.93
2019-05-05T13:20:33.902Z,5.30
2019-05-05T13:23:25.216Z,5.07
2019-05-05T13:26:05.630Z,4.80
2019-05-05T13:28:37.708Z,4.83
2019-05-05T13:31:07.306Z,8.60
2019-05-05T13:33:37.304Z,5.30
2019-05-05T13:36:07.021Z,3.50
2019-05-05T13:38:39.200Z,4.40
2019-05-05T13:41:10.377Z,5.23
2019-05-05T13:43:40.958Z,4.70
2019-05-05T13:46:30.291Z,4.40
2019-05-05T13:49:18.805Z,5.30
2019-05-05T13:51:50.042Z,5.27
2019-05-05T13:54:19.663Z,6.13
2019-05-05T13:56:49.185Z,4.30
2019-05-05T13:59:20.501Z,3.97
2019-05-05T14:01:51.374Z,9.33
2019-05-05T14:04:20.797Z,3.63
2019-05-05T14:06:50.337Z,3.80
2019-05-05T14:09:19.946Z,6.07
2019-05-05T14:11:49.443Z,3.00
2019-05-05T14:14:19.002Z,4.37
2019-05-05T14:16:48.476Z,3.70
2019-05-05T14:19:19.173Z,3.57
2019-05-05T14:21:48.544Z,3.23
2019-05-05T14:24:25.208Z,7.07
2019-05-05T14:26:54.725Z,3.47
2019-05-05T14:29:45.664Z,3.20
2019-05-05T14:32:17.868Z,4.30
2019-05-05T14:34:54.232Z,2.30
2019-05-05T14:37:55.242Z,5.37
2019-05-05T14:40:24.856Z,4.13
2019-05-05T14:42:54.267Z,3.50
2019-05-05T14:45:24.028Z,3.97
2019-05-05T14:48:13.909Z,2.23
2019-05-05T14:51:03.994Z,4.27
2019-05-05T14:53:54.284Z,5.47
2019-05-05T14:56:44.107Z,3.53
2019-05-05T14:59:34.074Z,3.30
2019-05-05T15:02:24.293Z,6.30
2019-05-05T15:05:33.848Z,4.93
2019-05-05T15:08:41.426Z,3.00
2019-05-05T15:11:48.860Z,2.73
2019-05-05T15:17:31.950Z,2.70
2019-05-05T15:20:21.682Z,2.83
2019-05-05T15:23:10.147Z,4.70
2019-05-05T15:25:58.790Z,4.40
2019-05-05T15:31:40.895Z,4.03
2019-05-05T15:34:29.427Z,5.77
2019-05-05T15:37:17.917Z,4.93
2019-05-05T15:40:06.429Z,4.87
2019-05-05T15:42:54.821Z,5.57
2019-05-05T15:48:43.814Z,4.60
2019-05-05T15:51:24.509Z,5.17
2019-05-05T15:54:06.032Z,2.83
2019-05-05T15:56:47.497Z,3.50
2019-05-05T15:59:28.351Z,6.40
2019-05-05T16:02:09.768Z,4.57
2019-05-05T16:04:50.396Z,4.43
2019-05-05T16:07:33.393Z,3.20
2019-05-05T16:10:14.424Z,2.90
2019-05-05T16:12:55.978Z,3.97
2019-05-05T16:15:55.827Z,4.90
2019-05-05T16:19:05.600Z,3.93
2019-05-05T16:21:57.294Z,3.50
2019-05-05T16:24:40.913Z,4.33
2019-05-05T16:27:24.748Z,3.23
2019-05-05T16:30:05.846Z,4.50
2019-05-05T16:32:47.421Z,3.70
2019-05-05T16:35:28.244Z,3.17
2019-05-05T16:38:09.853Z,4.27
2019-05-05T16:40:51.270Z,6.03
2019-05-05T16:43:30.817Z,3.23
2019-05-05T16:46:19.329Z,4.63
2019-05-05T16:52:23.864Z,3.57
2019-05-05T16:55:30.844Z,5.43
2019-05-05T16:58:19.324Z,4.67
2019-05-05T17:04:12.185Z,2.67
2019-05-05T17:06:54.699Z,4.87
2019-05-05T17:09:35.621Z,5.80
2019-05-05T17:12:18.215Z,3.60
2019-05-05T17:18:32.803Z,4.63
2019-05-05T17:21:35.130Z,6.13
2019-05-05T17:24:24.077Z,5.07
2019-05-05T17:27:13.982Z,4.47
2019-05-05T17:30:04.458Z,2.90
2019-05-05T17:32:54.469Z,6.17
2019-05-05T17:35:44.321Z,5.00
2019-05-05T17:38:34.113Z,6.10
2019-05-05T17:41:41.924Z,5.37
2019-05-05T17:47:44.133Z,5.70
2019-05-05T17:56:23.913Z,6.20
2019-05-05T17:59:06.294Z,5.13
2019-05-05T18:01:47.375Z,3.80
2019-05-05T18:04:28.634Z,4.97
2019-05-05T18:07:14.297Z,4.07
2019-05-05T18:10:18.338Z,6.80
2019-05-05T18:13:17.849Z,6.47
2019-05-05T18:16:04.568Z,2.93
2019-05-05T18:18:46.261Z,5.93
2019-05-05T18:21:31.775Z,4.00
2019-05-05T18:24:09.637Z,4.80
2019-05-05T18:26:50.908Z,7.77
2019-05-05T18:29:33.904Z,7.17
2019-05-05T18:32:15.263Z,8.23
2019-05-05T18:34:56.695Z,6.10
2019-05-05T18:37:38.224Z,5.37
2019-05-05T18:40:19.588Z,5.07
2019-05-05T18:43:04.023Z,5.53
2019-05-05T18:45:44.851Z,7.20
2019-05-05T18:48:26.263Z,5.03
2019-05-05T18:51:07.813Z,4.93
2019-05-05T18:53:49.277Z,5.77
2019-05-05T18:56:30.614Z,9.10
2019-05-05T18:59:12.026Z,8.70
2019-05-05T19:05:14.739Z,7.43
2019-05-05T19:07:58.955Z,6.83
2019-05-05T19:10:43.367Z,7.13
2019-05-05T19:13:24.892Z,7.40
2019-05-05T19:16:05.669Z,8.07
2019-05-05T19:18:46.540Z,6.77
2019-05-05T19:21:34.000Z,5.27
2019-05-05T19:24:14.775Z,10.03
2019-05-05T19:26:56.116Z,5.07
2019-05-05T19:29:39.970Z,4.83
2019-05-05T19:32:21.386Z,5.07
2019-05-05T19:35:03.980Z,5.53
2019-05-05T19:37:45.439Z,8.90
2019-05-05T19:40:26.769Z,7.10
2019-05-05T19:43:08.481Z,8.17
2019-05-05T19:45:49.832Z,7.27
2019-05-05T19:48:31.332Z,6.33
2019-05-05T19:51:14.600Z,4.23
2019-05-05T19:53:55.566Z,5.67
2019-05-05T19:56:37.101Z,8.00
2019-05-05T19:59:19.761Z,9.03
2019-05-05T20:02:00.927Z,8.13
2019-05-05T20:04:44.344Z,7.13
2019-05-05T20:07:24.932Z,6.13
2019-05-05T20:10:04.759Z,6.67
2019-05-05T20:16:13.979Z,5.17
2019-05-05T20:19:04.184Z,7.17
2019-05-05T20:21:54.363Z,9.07
2019-05-05T20:25:04.396Z,5.60
2019-05-05T20:34:00.088Z,15.47
2019-05-05T20:37:07.614Z,5.70
2019-05-05T20:42:54.296Z,9.63
2019-05-05T20:45:44.234Z,15.17
2019-05-05T20:51:20.842Z,9.10
2019-05-05T20:54:04.296Z,10.33
2019-05-05T20:56:45.791Z,6.47
2019-05-05T20:59:30.871Z,6.37
2019-05-05T21:02:09.861Z,8.67
2019-05-05T21:04:51.191Z,6.33
2019-05-05T21:07:34.635Z,8.67
2019-05-05T21:10:15.335Z,6.10
2019-05-05T21:12:56.864Z,11.20
2019-05-05T21:15:38.266Z,7.97
2019-05-05T21:18:17.846Z,6.90
2019-05-05T21:24:04.081Z,10.03
2019-05-05T21:27:00.909Z,11.20
2019-05-05T21:29:49.378Z,9.03
2019-05-05T21:32:37.982Z,9.33
2019-05-05T21:35:26.683Z,8.90
2019-05-05T21:38:15.254Z,7.67
2019-05-05T21:41:04.266Z,7.87
2019-05-05T21:43:54.159Z,6.87
2019-05-05T21:46:44.163Z,4.40
2019-05-05T21:52:58.999Z,7.80
2019-05-05T21:56:06.309Z,6.60
2019-05-05T22:04:45.207Z,7.93
2019-05-05T22:10:34.365Z,7.20
2019-05-05T22:13:15.604Z,5.53
2019-05-05T22:15:56.545Z,10.27
2019-05-05T22:18:37.214Z,8.20
2019-05-05T22:24:26.379Z,11.13
2019-05-05T22:27:07.032Z,9.87
2019-05-05T22:29:48.277Z,7.47
2019-05-05T22:32:29.610Z,10.83
2019-05-05T22:35:11.148Z,6.70
2019-05-05T22:37:52.532Z,9.53
2019-05-05T22:40:34.552Z,7.53
2019-05-05T22:43:15.382Z,9.73
2019-05-05T22:45:56.854Z,7.17
2019-05-05T22:48:38.355Z,11.03
2019-05-05T22:51:19.881Z,7.50
2019-05-05T22:54:01.125Z,10.27
2019-05-05T22:56:41.766Z,9.33
2019-05-05T22:59:24.199Z,12.43
2019-05-05T23:02:05.606Z,7.87
2019-05-05T23:07:59.396Z,11.53
2019-05-05T23:10:40.133Z,10.73
2019-05-05T23:13:21.507Z,11.03
2019-05-05T23:18:57.793Z,9.90
2019-05-05T23:21:44.825Z,10.17
2019-05-05T23:24:45.252Z,11.17
2019-05-05T23:27:45.770Z,11.17
2019-05-05T23:30:38.507Z,12.60
2019-05-05T23:33:09.836Z,10.43
2019-05-05T23:35:50.744Z,9.00
2019-05-05T23:38:31.515Z,9.43
2019-05-05T23:41:14.461Z,7.47
2019-05-05T23:43:54.964Z,9.40
2019-05-05T23:46:35.595Z,9.13
2019-05-05T23:49:16.927Z,6.67
2019-05-05T23:51:58.168Z,8.30
2019-05-05T23:54:37.697Z,8.60
2019-05-05T23:57:26.104Z,8.83
